Time;durP1;ratioP1;P1;durP2;ratioP2;P2;SDS_P1;SDS_P2;PMS_P1;PMS_P2;Temp;Humidity;BMP_temperature;BMP_pressure;BME280_temperature;BME280_humidity;BME280_pressure;Samples;Min_cycle;Max_cycle;Signal;HPM_P1;HPM_P2
2022/01/29 00:01:41;;;;;;;13.25;8.23;;;;;;;3.71;72.15;98240.78;5075868;28;20056;-76
2022/01/29 00:04:11;;;;;;;11.90;8.77;;;;;;;3.68;72.84;98236.63;5075879;28;20052;-76
2022/01/29 00:06:38;;;;;;;11.13;8.93;;;;;;;3.70;74.08;98218.47;5075576;28;20075;-76
2022/01/29 00:09:08;;;;;;;13.07;9.93;;;;;;;3.76;73.77;98209.50;5075798;28;20044;-78
2022/01/29 00:11:36;;;;;;;16.92;10.73;;;;;;;3.78;74.17;98202.50;5076087;28;20056;-76
2022/01/29 00:14:05;;;;;;;15.52;10.75;;;;;;;3.78;74.20;98203.31;5075883;28;20082;-78
2022/01/29 00:16:33;;;;;;;15.35;10.70;;;;;;;3.75;74.21;98205.28;5075184;28;20048;-75
2022/01/29 00:19:01;;;;;;;12.77;10.27;;;;;;;3.71;73.69;98208.03;5074961;28;20056;-76
2022/01/29 00:21:30;;;;;;;16.70;9.10;;;;;;;3.70;72.45;98198.66;5075268;28;20052;-76
2022/01/29 00:23:58;;;;;;;16.35;8.82;;;;;;;3.61;71.53;98183.78;5074979;28;20512;-77
2022/01/29 00:26:26;;;;;;;20.27;11.68;;;;;;;3.50;71.59;98186.22;5074614;28;20492;-76
2022/01/29 00:28:55;;;;;;;24.23;13.30;;;;;;;3.44;71.65;98181.44;5074219;28;20049;-76
2022/01/29 00:31:22;;;;;;;42.08;18.65;;;;;;;3.40;71.15;98178.22;5074213;28;20085;-78
2022/01/29 00:33:50;;;;;;;44.50;21.13;;;;;;;3.37;71.25;98187.91;5074547;28;20106;-77
2022/01/29 00:36:17;;;;;;;32.70;16.38;;;;;;;3.38;72.92;98182.66;5074171;28;20051;-77
2022/01/29 00:38:46;;;;;;;33.13;15.70;;;;;;;3.41;72.53;98190.22;5074892;28;20052;-78
2022/01/29 00:41:14;;;;;;;24.23;14.63;;;;;;;3.42;72.56;98175.56;5074475;28;20059;-78
2022/01/29 00:43:41;;;;;;;23.30;13.25;;;;;;;3.45;73.13;98180.50;5074277;28;20540;-78
2022/01/29 00:46:09;;;;;;;21.42;12.23;;;;;;;3.47;72.78;98173.50;5074312;28;20109;-77
2022/01/29 00:48:36;;;;;;;19.02;10.38;;;;;;;3.45;72.35;98167.63;5074028;28;20052;-76
2022/01/29 00:51:07;;;;;;;16.33;9.90;;;;;;;3.41;71.16;98158.41;5075124;28;20104;-78
2022/01/29 00:53:34;;;;;;;12.85;8.95;;;;;;;3.32;71.06;98156.44;5075036;28;20053;-77
2022/01/29 00:56:06;;;;;;;11.73;8.45;;;;;;;3.24;70.75;98157.75;5074319;28;20052;-76
2022/01/29 00:58:34;;;;;;;14.75;8.77;;;;;;;3.20;71.13;98151.13;5074882;28;20048;-79
2022/01/29 01:01:02;;;;;;;13.65;7.80;;;;;;;3.19;71.34;98149.50;5074609;28;20502;-78
2022/01/29 01:03:29;;;;;;;12.90;8.23;;;;;;;3.19;71.00;98146.06;5074158;28;20460;-77
2022/01/29 01:05:57;;;;;;;10.02;7.30;;;;;;;3.15;71.03;98145.44;5074500;28;20456;-77
2022/01/29 01:08:24;;;;;;;11.13;8.05;;;;;;;3.10;70.94;98150.03;5073783;28;20126;-77
2022/01/29 01:10:52;;;;;;;10.60;7.72;;;;;;;3.06;71.08;98139.13;5073814;28;20164;-78
2022/01/29 01:13:20;;;;;;;15.93;8.00;;;;;;;3.02;70.97;98129.91;5074163;28;20541;-78
2022/01/29 01:15:48;;;;;;;11.15;8.05;;;;;;;2.98;70.68;98135.38;5074302;28;20133;-78
2022/01/29 01:18:17;;;;;;;10.23;7.47;;;;;;;2.93;70.82;98132.22;5073906;28;20040;-77
2022/01/29 01:20:44;;;;;;;11.38;8.05;;;;;;;2.91;70.72;98134.94;5072505;28;20090;-76
2022/01/29 01:23:12;;;;;;;16.98;9.18;;;;;;;2.94;72.04;98128.75;5073251;28;20052;-76
2022/01/29 01:25:39;;;;;;;13.88;8.43;;;;;;;2.99;72.04;98129.28;5073109;28;20067;-77
2022/01/29 01:28:07;;;;;;;10.02;7.80;;;;;;;3.01;71.82;98135.16;5073024;28;20048;-78
2022/01/29 01:30:36;;;;;;;11.00;8.23;;;;;;;3.07;73.50;98132.22;5073763;28;20056;-78
2022/01/29 01:33:04;;;;;;;11.68;8.65;;;;;;;3.14;73.57;98130.88;5073913;28;20067;-77
2022/01/29 01:35:37;;;;;;;11.70;8.50;;;;;;;3.19;72.59;98128.84;5073519;28;20052;-76
2022/01/29 01:38:12;;;;;;;14.07;8.35;;;;;;;3.20;71.49;98137.41;5073547;28;20057;-78
2022/01/29 01:40:42;;;;;;;11.98;7.90;;;;;;;3.16;71.43;98136.78;5073537;28;20064;-77
2022/01/29 01:43:10;;;;;;;10.75;8.63;;;;;;;3.12;71.16;98137.88;5072584;28;20395;-76
2022/01/29 01:45:39;;;;;;;12.43;7.57;;;;;;;3.09;70.91;98138.09;5072721;28;20131;-76
2022/01/29 01:48:07;;;;;;;13.52;8.68;;;;;;;3.08;71.69;98134.69;5072414;28;20056;-77
2022/01/29 01:50:35;;;;;;;13.25;8.50;;;;;;;3.13;73.02;98136.97;5073276;28;20056;-76
2022/01/29 01:53:04;;;;;;;12.13;9.07;;;;;;;3.18;73.76;98140.09;5073576;28;20048;-78
2022/01/29 01:55:32;;;;;;;11.20;7.88;;;;;;;3.22;73.25;98141.53;5073009;28;20044;-78
2022/01/29 01:58:00;;;;;;;10.98;8.20;;;;;;;3.26;73.29;98135.28;5072600;28;20045;-76
2022/01/29 02:00:28;;;;;;;10.82;8.02;;;;;;;3.28;72.22;98133.44;5073119;28;20048;-76
2022/01/29 02:02:57;;;;;;;13.38;9.85;;;;;;;3.28;73.01;98138.59;5072424;28;20048;-79
2022/01/29 02:05:25;;;;;;;10.23;8.23;;;;;;;3.30;73.89;98135.88;5073244;28;20052;-79
2022/01/29 02:07:53;;;;;;;11.55;8.30;;;;;;;3.36;74.52;98122.59;5073516;28;20048;-78
2022/01/29 02:10:21;;;;;;;11.00;7.45;;;;;;;3.34;72.44;98119.28;5073162;28;20414;-79
2022/01/29 02:12:52;;;;;;;15.07;10.52;;;;;;;3.34;73.71;98106.41;5073479;28;20498;-78
2022/01/29 02:15:21;;;;;;;15.07;9.90;;;;;;;3.37;72.67;98102.78;5073231;28;20049;-78
2022/01/29 02:17:50;;;;;;;11.63;7.88;;;;;;;3.37;72.05;98105.38;5073096;28;20048;-79
2022/01/29 02:20:20;;;;;;;12.35;7.72;;;;;;;3.32;70.92;98091.94;5075073;28;20048;-79
2022/01/29 02:22:49;;;;;;;10.90;8.20;;;;;;;3.25;71.79;98097.50;5076495;28;20426;-79
2022/01/29 02:25:29;;;;;;;15.57;8.77;;;;;;;3.27;72.51;98093.06;5076265;28;20052;-80
2022/01/29 02:27:56;;;;;;;13.13;8.90;;;;;;;3.27;73.77;98085.34;5075891;28;20102;-78
2022/01/29 02:30:24;;;;;;;12.88;8.25;;;;;;;3.27;73.00;98081.94;5076112;28;20051;-78
2022/01/29 02:32:51;;;;;;;16.02;9.25;;;;;;;3.23;71.92;98070.16;5075911;28;20565;-79
2022/01/29 02:35:19;;;;;;;12.98;9.05;;;;;;;3.21;72.46;98072.81;5075888;28;20505;-80
2022/01/29 02:37:51;;;;;;;15.45;9.00;;;;;;;3.22;72.30;98071.09;5075940;28;20052;-78
2022/01/29 02:40:21;;;;;;;15.20;10.30;;;;;;;3.23;73.94;98060.66;5076205;28;20178;-78
2022/01/29 02:42:50;;;;;;;18.10;9.88;;;;;;;3.28;74.57;98061.22;5075970;28;20064;-79
2022/01/29 02:45:17;;;;;;;13.65;8.90;;;;;;;3.30;73.89;98059.34;5076265;28;20056;-79
2022/01/29 02:47:44;;;;;;;12.45;8.82;;;;;;;3.31;73.31;98049.88;5076110;28;20056;-79
2022/01/29 02:50:13;;;;;;;14.63;9.93;;;;;;;3.32;73.80;98046.34;5076451;28;20044;-79
2022/01/29 02:52:40;;;;;;;12.55;9.52;;;;;;;3.31;73.60;98047.28;5076464;28;20490;-78
2022/01/29 02:55:08;;;;;;;13.65;9.27;;;;;;;3.30;73.32;98037.88;5076009;28;20106;-79
2022/01/29 02:57:37;;;;;;;12.10;9.10;;;;;;;3.29;72.21;98036.25;5076070;28;20078;-79
2022/01/29 03:00:10;;;;;;;13.95;8.98;;;;;;;3.23;71.29;98026.31;5076508;28;20045;-80
2022/01/29 03:02:38;;;;;;;13.85;9.52;;;;;;;3.21;72.25;98034.16;5076321;28;20071;-78
2022/01/29 03:05:07;;;;;;;11.48;8.63;;;;;;;3.22;73.22;98025.50;5076639;28;20072;-78
2022/01/29 03:07:34;;;;;;;13.55;9.07;;;;;;;3.22;72.62;98015.19;5076037;28;20063;-78
2022/01/29 03:10:01;;;;;;;13.95;9.52;;;;;;;3.24;73.86;98015.91;5077085;28;20053;-79
2022/01/29 03:12:29;;;;;;;11.68;8.82;;;;;;;3.26;72.81;98001.16;5077022;28;20048;-78
2022/01/29 03:14:58;;;;;;;11.88;8.65;;;;;;;3.22;72.11;97994.56;5076934;28;20055;-80
2022/01/29 03:17:26;;;;;;;16.20;8.65;;;;;;;3.20;72.02;97996.41;5076216;28;20052;-78
2022/01/29 03:19:53;;;;;;;12.82;9.05;;;;;;;3.17;72.31;98001.78;5075029;28;20045;-78
2022/01/29 03:22:21;;;;;;;13.93;10.13;;;;;;;3.18;72.06;98003.41;5075178;28;20059;-79
2022/01/29 03:24:48;;;;;;;11.50;8.45;;;;;;;3.19;72.43;97999.94;5075020;28;20071;-79
2022/01/29 03:27:16;;;;;;;15.30;9.52;;;;;;;3.14;72.50;98009.69;5074710;28;20063;-78
2022/01/29 03:29:44;;;;;;;13.13;9.70;;;;;;;3.12;72.66;98005.56;5074904;28;20048;-79
2022/01/29 03:32:13;;;;;;;15.73;9.80;;;;;;;3.09;73.05;97998.88;5074698;28;20514;-78
2022/01/29 03:34:40;;;;;;;13.60;8.43;;;;;;;3.10;72.97;97995.34;5074256;28;20048;-78
2022/01/29 03:37:08;;;;;;;12.10;9.73;;;;;;;3.12;73.99;97983.19;5074688;28;20421;-78
2022/01/29 03:39:37;;;;;;;13.95;9.38;;;;;;;3.13;74.21;97984.84;5075053;28;20472;-78
2022/01/29 03:42:08;;;;;;;15.57;9.55;;;;;;;3.15;74.73;97983.00;5074925;28;20079;-79
2022/01/29 03:44:35;;;;;;;13.95;9.68;;;;;;;3.19;74.97;97984.47;5074991;28;20426;-81
2022/01/29 03:47:04;;;;;;;11.82;9.48;;;;;;;3.21;74.83;97989.50;5074488;28;20067;-78
2022/01/29 03:49:33;;;;;;;12.50;9.35;;;;;;;3.22;75.65;97989.41;5074781;28;20048;-78
2022/01/29 03:52:00;;;;;;;13.80;9.43;;;;;;;3.23;75.67;97985.06;5075199;28;20113;-80
2022/01/29 03:54:27;;;;;;;11.18;7.40;;;;;;;3.22;74.01;97989.41;5075022;28;20056;-78
2022/01/29 03:56:55;;;;;;;12.95;9.15;;;;;;;3.21;74.67;97982.56;5074221;28;20055;-79
2022/01/29 03:59:22;;;;;;;12.32;7.82;;;;;;;3.22;73.33;97965.38;5074761;28;20055;-78
2022/01/29 04:01:50;;;;;;;10.38;8.32;;;;;;;3.20;73.21;97960.31;5074737;28;20430;-79
2022/01/29 04:04:18;;;;;;;13.50;8.18;;;;;;;3.19;73.05;97958.69;5074324;28;20063;-79
2022/01/29 04:06:46;;;;;;;10.65;7.88;;;;;;;3.23;74.72;97948.97;5074368;28;20044;-79
2022/01/29 04:09:14;;;;;;;14.48;8.02;;;;;;;3.24;74.44;97950.63;5074712;28;20044;-79
2022/01/29 04:11:41;;;;;;;10.73;7.65;;;;;;;3.26;73.54;97954.75;5074740;28;20044;-78
2022/01/29 04:14:15;;;;;;;14.65;8.68;;;;;;;3.26;73.72;97952.16;5074713;28;20102;-78
2022/01/29 04:16:43;;;;;;;14.85;9.48;;;;;;;3.26;74.56;97949.59;5074560;28;20052;-77
2022/01/29 04:19:11;;;;;;;13.50;7.90;;;;;;;3.29;74.98;97943.41;5074713;28;20059;-79
2022/01/29 04:21:38;;;;;;;11.63;8.57;;;;;;;3.32;75.12;97937.19;5074809;28;20052;-79
2022/01/29 04:24:08;;;;;;;8.63;6.45;;;;;;;3.29;72.94;97941.63;5073819;28;20101;-80
2022/01/29 04:26:36;;;;;;;10.70;6.55;;;;;;;3.28;73.62;97944.34;5073282;28;20520;-78
2022/01/29 04:29:07;;;;;;;8.63;6.03;;;;;;;3.28;74.19;97942.59;5074557;28;20056;-78
2022/01/29 04:31:42;;;;;;;7.25;5.47;;;;;;;3.32;74.55;97944.94;5074018;28;20051;-78
2022/01/29 04:34:09;;;;;;;9.40;5.78;;;;;;;3.36;74.83;97948.97;5074337;28;20044;-79
2022/01/29 04:36:37;;;;;;;6.80;5.75;;;;;;;3.42;75.34;97945.97;5073573;28;20537;-80
2022/01/29 04:39:04;;;;;;;7.07;5.32;;;;;;;3.45;74.49;97944.00;5074039;28;20048;-78
2022/01/29 04:41:33;;;;;;;6.88;4.97;;;;;;;3.45;73.79;97932.88;5073774;28;20102;-79
2022/01/29 04:44:01;;;;;;;8.07;5.45;;;;;;;3.46;74.63;97935.34;5073924;28;20055;-79
2022/01/29 04:46:29;;;;;;;7.93;5.30;;;;;;;3.45;73.68;97943.19;5073815;28;20052;-77
2022/01/29 04:48:56;;;;;;;6.72;4.40;;;;;;;3.41;72.38;97932.25;5073983;28;20135;-79
2022/01/29 04:51:24;;;;;;;6.35;4.90;;;;;;;3.37;72.58;97943.72;5073862;28;20049;-79
2022/01/29 04:53:52;;;;;;;9.15;5.32;;;;;;;3.36;73.38;97941.22;5074085;28;20056;-78
2022/01/29 04:56:19;;;;;;;6.35;5.10;;;;;;;3.39;73.32;97935.84;5073916;28;20418;-79
2022/01/29 04:58:48;;;;;;;6.75;4.90;;;;;;;3.38;72.98;97939.38;5074163;28;20509;-80
2022/01/29 05:01:16;;;;;;;9.45;4.50;;;;;;;3.38;71.82;97929.88;5074202;28;20066;-78
2022/01/29 05:03:43;;;;;;;9.48;4.47;;;;;;;3.40;72.87;97933.19;5074408;28;20147;-79
2022/01/29 05:06:12;;;;;;;6.13;4.53;;;;;;;3.43;72.91;97939.88;5073847;28;20048;-78
2022/01/29 05:08:40;;;;;;;5.57;4.43;;;;;;;3.43;71.92;97939.88;5074084;28;20052;-78
2022/01/29 05:11:08;;;;;;;9.18;4.82;;;;;;;3.45;72.38;97938.84;5074674;28;20430;-78
2022/01/29 05:13:38;;;;;;;6.38;4.38;;;;;;;3.48;73.32;97932.66;5074438;28;20052;-78
2022/01/29 05:27:11;;;;;;;6.80;4.75;;;;;;;3.55;73.96;97933.91;5073239;28;20052;-78
2022/01/29 05:29:38;;;;;;;4.57;3.83;;;;;;;3.55;71.63;97946.78;5073683;28;20059;-78
2022/01/29 05:32:11;;;;;;;5.65;4.68;;;;;;;3.54;72.26;97941.72;5074549;28;20044;-78
2022/01/29 05:34:40;;;;;;;5.15;3.47;;;;;;;3.51;70.89;97932.44;5073979;28;20040;-80
2022/01/29 05:37:27;;;;;;;8.05;4.25;;;;;;;3.50;70.41;97926.47;5073677;28;20078;-78
2022/01/29 05:39:55;;;;;;;5.60;3.95;;;;;;;3.48;69.86;97930.91;5073776;28;20057;-79
2022/01/29 05:42:22;;;;;;;4.70;3.92;;;;;;;3.49;71.65;97918.84;5073990;28;20449;-77
2022/01/29 05:44:50;;;;;;;6.82;4.20;;;;;;;3.52;72.32;97913.47;5073613;28;20265;-77
2022/01/29 05:47:19;;;;;;;5.20;3.70;;;;;;;3.52;71.42;97903.16;5073336;28;20048;-77
2022/01/29 05:49:46;;;;;;;6.30;3.95;;;;;;;3.53;72.44;97909.13;5073725;28;20086;-78
2022/01/29 05:52:14;;;;;;;5.60;3.20;;;;;;;3.53;71.62;97901.41;5073035;28;20044;-77
2022/01/29 05:54:41;;;;;;;4.32;3.40;;;;;;;3.52;71.59;97903.16;5076897;28;20052;-79
2022/01/29 05:57:09;;;;;;;5.88;3.55;;;;;;;3.53;71.37;97894.47;5076971;28;20052;-77
2022/01/29 05:59:37;;;;;;;4.47;3.45;;;;;;;3.55;71.10;97902.13;5077030;28;20498;-79
2022/01/29 06:02:04;;;;;;;5.38;3.17;;;;;;;3.53;70.05;97894.47;5077136;28;20047;-77
2022/01/29 06:04:33;;;;;;;3.65;2.83;;;;;;;3.51;69.68;97902.31;5076729;28;20056;-77
2022/01/29 06:07:01;;;;;;;6.28;3.58;;;;;;;3.53;71.13;97906.56;5077021;28;20106;-78
2022/01/29 06:09:28;;;;;;;7.75;3.60;;;;;;;3.52;70.99;97910.91;5076830;28;20067;-77
2022/01/29 06:11:56;;;;;;;6.80;3.47;;;;;;;3.50;70.93;97911.00;5076509;28;20051;-78
2022/01/29 06:14:23;;;;;;;3.55;2.65;;;;;;;3.48;69.98;97912.84;5076829;28;20063;-77
2022/01/29 06:16:51;;;;;;;5.50;3.38;;;;;;;3.48;70.15;97917.19;5075911;28;20053;-78
2022/01/29 06:19:18;;;;;;;7.22;3.53;;;;;;;3.45;70.72;97909.66;5076801;28;20535;-78
2022/01/29 06:21:47;;;;;;;4.30;2.97;;;;;;;3.47;71.10;97900.88;5076357;28;20048;-77
2022/01/29 06:24:14;;;;;;;4.97;3.70;;;;;;;3.49;71.61;97909.31;5077492;28;20048;-77
2022/01/29 06:26:42;;;;;;;5.75;3.80;;;;;;;3.50;71.53;97911.00;5076113;28;20056;-77
2022/01/29 06:29:09;;;;;;;4.20;2.90;;;;;;;3.53;70.69;97911.72;5076445;28;20051;-77
2022/01/29 06:31:37;;;;;;;5.28;3.38;;;;;;;3.51;71.05;97909.22;5076650;28;20508;-79
2022/01/29 06:34:04;;;;;;;6.38;4.50;;;;;;;3.48;70.00;97906.88;5077309;28;20044;-79
2022/01/29 06:36:32;;;;;;;6.15;4.15;;;;;;;3.45;69.38;97912.22;5076174;28;20049;-76
2022/01/29 06:39:01;;;;;;;6.47;4.38;;;;;;;3.45;71.32;97918.19;5076784;28;20399;-78
2022/01/29 06:41:28;;;;;;;5.40;3.60;;;;;;;3.47;72.28;97925.84;5076682;28;20052;-77
2022/01/29 06:43:56;;;;;;;5.78;4.25;;;;;;;3.50;71.56;97930.81;5076571;28;20059;-77
2022/01/29 06:46:23;;;;;;;6.32;4.13;;;;;;;3.50;71.54;97925.66;5075608;28;20056;-78
2022/01/29 06:48:52;;;;;;;4.45;3.75;;;;;;;3.49;72.08;97926.56;5076483;28;20486;-78
2022/01/29 06:51:19;;;;;;;5.97;4.07;;;;;;;3.49;72.50;97929.16;5076254;28;20041;-78
2022/01/29 06:53:47;;;;;;;7.35;4.60;;;;;;;3.50;72.01;97930.81;5076397;28;20560;-78
2022/01/29 06:56:16;;;;;;;5.40;4.20;;;;;;;3.48;71.28;97933.50;5075905;28;20473;-78
2022/01/29 06:58:43;;;;;;;6.50;4.20;;;;;;;3.46;71.63;97929.38;5076362;28;20048;-77
2022/01/29 07:01:31;;;;;;;5.45;4.18;;;;;;;3.45;72.03;97918.19;5076489;28;20102;-77
2022/01/29 07:03:58;;;;;;;5.15;4.20;;;;;;;3.46;71.83;97919.88;5075992;28;20053;-78
2022/01/29 07:06:26;;;;;;;6.63;4.70;;;;;;;3.43;70.50;97914.09;5074789;28;20521;-77
2022/01/29 07:08:54;;;;;;;5.95;4.35;;;;;;;3.39;70.88;97928.13;5075812;28;20410;-78
2022/01/29 07:11:23;;;;;;;8.27;4.97;;;;;;;3.35;70.05;97937.00;5076236;28;20060;-78
2022/01/29 07:14:00;;;;;;;8.10;5.65;;;;;;;3.35;72.13;97931.84;5076246;28;20052;-79
2022/01/29 07:16:28;;;;;;;8.32;5.50;;;;;;;3.36;71.39;97916.25;5075304;28;20525;-77
2022/01/29 07:18:56;;;;;;;7.90;5.90;;;;;;;3.38;71.32;97918.75;5076827;28;20084;-77
2022/01/29 07:21:23;;;;;;;9.32;6.65;;;;;;;3.38;71.85;97911.00;5075800;28;20486;-77
2022/01/29 07:23:51;;;;;;;10.02;6.57;;;;;;;3.36;72.42;97903.34;5074985;28;20059;-79
2022/01/29 07:26:18;;;;;;;10.75;7.45;;;;;;;3.37;72.70;97914.50;5075153;28;20053;-77
2022/01/29 07:28:48;;;;;;;11.05;8.30;;;;;;;3.38;73.32;97918.75;5075677;28;20078;-78
2022/01/29 07:31:19;;;;;;;12.80;8.80;;;;;;;3.38;73.60;97927.28;5075503;28;20057;-78
2022/01/29 07:33:47;;;;;;;16.50;9.18;;;;;;;3.41;73.59;97931.41;5075683;28;20071;-78
2022/01/29 07:36:15;;;;;;;14.40;9.85;;;;;;;3.40;74.15;97933.19;5075253;28;20056;-78
2022/01/29 07:38:42;;;;;;;15.05;9.18;;;;;;;3.42;74.13;97921.00;5075460;28;20049;-78
2022/01/29 07:41:10;;;;;;;18.13;10.63;;;;;;;3.41;73.69;97926.25;5075017;28;20053;-78
2022/01/29 07:43:37;;;;;;;15.27;9.70;;;;;;;3.40;74.09;97920.28;5075423;28;20056;-78
2022/01/29 07:46:06;;;;;;;16.42;11.23;;;;;;;3.42;73.88;97927.94;5075068;28;20048;-77
2022/01/29 07:48:34;;;;;;;17.05;10.52;;;;;;;3.40;74.10;97935.75;5075753;28;20490;-78
2022/01/29 07:51:01;;;;;;;12.95;9.95;;;;;;;3.42;74.11;97922.75;5075424;28;20123;-77
2022/01/29 07:53:29;;;;;;;16.45;11.00;;;;;;;3.41;74.79;97918.53;5074517;28;20056;-77
2022/01/29 07:55:56;;;;;;;18.83;11.07;;;;;;;3.42;74.28;97907.28;5074501;28;20503;-78
2022/01/29 07:58:24;;;;;;;15.75;11.13;;;;;;;3.40;73.54;97907.38;5074782;28;20513;-78
2022/01/29 08:00:51;;;;;;;17.45;11.80;;;;;;;3.39;74.29;97907.47;5074781;28;20410;-77
2022/01/29 08:03:20;;;;;;;16.08;10.68;;;;;;;3.38;74.91;97896.34;5074128;28;20048;-77
2022/01/29 08:05:48;;;;;;;14.82;10.98;;;;;;;3.39;74.20;97899.75;5074660;28;20062;-79
2022/01/29 08:08:20;;;;;;;16.47;10.97;;;;;;;3.37;73.96;97891.28;5075104;28;20087;-77
2022/01/29 08:10:48;;;;;;;17.02;12.63;;;;;;;3.35;74.60;97893.16;5075100;28;20281;-77
2022/01/29 08:13:15;;;;;;;17.42;11.63;;;;;;;3.29;73.13;97882.31;5075107;28;20059;-77
2022/01/29 08:15:43;;;;;;;15.32;11.10;;;;;;;3.23;73.06;97882.72;5074669;28;20044;-77
2022/01/29 08:18:10;;;;;;;15.82;11.35;;;;;;;3.22;73.28;97891.41;5074411;28;20052;-80
2022/01/29 08:20:39;;;;;;;17.38;12.00;;;;;;;3.22;73.91;97900.91;5075240;28;20051;-78
2022/01/29 08:23:08;;;;;;;17.30;11.10;;;;;;;3.21;74.11;97905.22;5074685;28;20056;-77
2022/01/29 08:25:36;;;;;;;16.67;12.15;;;;;;;3.21;74.45;97904.41;5074814;28;20044;-78
2022/01/29 08:28:03;;;;;;;20.40;13.20;;;;;;;3.19;74.75;97907.09;5073592;28;20048;-78
2022/01/29 08:30:31;;;;;;;21.75;12.32;;;;;;;3.18;74.56;97910.59;5073564;28;20056;-76
2022/01/29 08:33:00;;;;;;;15.70;11.18;;;;;;;3.17;74.54;97892.63;5074394;28;20426;-76
2022/01/29 08:35:27;;;;;;;17.98;12.15;;;;;;;3.16;74.76;97891.81;5073591;28;20044;-77
2022/01/29 08:37:58;;;;;;;17.55;12.18;;;;;;;3.14;74.43;97891.09;5074267;28;20051;-78
2022/01/29 08:40:26;;;;;;;22.33;14.68;;;;;;;3.14;75.01;97893.69;5073499;28;20078;-77
2022/01/29 08:42:54;;;;;;;31.13;17.80;;;;;;;3.15;74.76;97884.19;5073418;28;20075;-77
2022/01/29 08:45:22;;;;;;;23.45;13.57;;;;;;;3.14;75.25;97888.53;5073787;28;20426;-76
2022/01/29 08:47:49;;;;;;;18.02;12.55;;;;;;;3.17;75.03;97880.59;5058791;28;20115;-76
2022/01/29 08:50:17;;;;;;;20.08;11.85;;;;;;;3.18;75.00;97871.91;5074513;28;20568;-76
2022/01/29 08:52:44;;;;;;;15.55;10.65;;;;;;;3.20;74.94;97882.13;5073790;28;20094;-80
2022/01/29 08:55:14;;;;;;;16.35;11.27;;;;;;;3.19;74.86;97881.31;5073399;28;20048;-78
2022/01/29 08:57:41;;;;;;;16.35;10.48;;;;;;;3.23;75.25;97885.31;5073272;28;20472;-77
2022/01/29 09:00:11;;;;;;;19.05;11.10;;;;;;;3.23;74.41;97871.59;5074274;28;20052;-78
2022/01/29 09:02:38;;;;;;;14.40;9.23;;;;;;;3.22;73.41;97878.53;5073860;28;20067;-78
2022/01/29 09:05:07;;;;;;;13.50;9.35;;;;;;;3.21;73.56;97878.63;5073799;28;20464;-77
2022/01/29 09:07:35;;;;;;;48.65;27.98;;;;;;;3.21;72.81;97879.44;5073616;28;20052;-77
2022/01/29 09:10:03;;;;;;;15.98;10.05;;;;;;;3.23;72.68;97887.88;5073929;28;20049;-76
2022/01/29 09:12:33;;;;;;;13.05;8.80;;;;;;;3.25;73.54;97880.88;5073511;28;20055;-77
2022/01/29 09:15:00;;;;;;;12.70;8.63;;;;;;;3.26;73.00;97861.91;5074064;28;20044;-76
2022/01/29 09:17:28;;;;;;;11.80;7.90;;;;;;;3.30;73.57;97862.50;5073430;28;20040;-77
2022/01/29 09:19:55;;;;;;;10.45;6.30;;;;;;;3.34;73.61;97852.81;5073921;28;20049;-72
2022/01/29 09:22:23;;;;;;;8.70;6.15;;;;;;;3.35;72.32;97859.63;5075501;28;20044;-80
2022/01/29 09:24:50;;;;;;;9.20;5.93;;;;;;;3.38;71.87;97857.66;5077929;28;20110;-77
2022/01/29 09:27:18;;;;;;;10.75;5.82;;;;;;;3.46;73.30;97859.72;5079223;28;20060;-78
2022/01/29 09:29:46;;;;;;;8.45;6.22;;;;;;;3.53;73.77;97855.78;5078989;28;20098;-76
2022/01/29 09:32:14;;;;;;;7.10;4.70;;;;;;;3.59;73.21;97857.94;5077063;28;20059;-80
2022/01/29 09:34:42;;;;;;;7.40;4.90;;;;;;;3.61;73.03;97856.06;5078667;28;20048;-80
2022/01/29 09:37:09;;;;;;;7.65;4.57;;;;;;;3.61;72.65;97850.91;5078809;28;20052;-78
2022/01/29 09:39:37;;;;;;;12.35;6.90;;;;;;;3.61;71.29;97844.94;5077143;28;20429;-78
2022/01/29 09:42:06;;;;;;;6.78;4.07;;;;;;;3.63;70.36;97849.06;5076872;28;20057;-77
2022/01/29 09:44:34;;;;;;;6.07;4.68;;;;;;;3.64;70.80;97845.53;5076625;28;20045;-78
2022/01/29 09:47:04;;;;;;;6.63;4.05;;;;;;;3.65;70.63;97852.34;5076642;28;20044;-78
2022/01/29 09:49:33;;;;;;;7.18;4.10;;;;;;;3.68;71.71;97851.31;5076460;28;20086;-78
2022/01/29 09:52:01;;;;;;;6.88;3.85;;;;;;;3.68;71.54;97841.81;5077198;28;20056;-78
2022/01/29 09:54:29;;;;;;;7.45;4.07;;;;;;;3.71;70.49;97841.56;5078590;28;20045;-79
2022/01/29 09:56:56;;;;;;;6.07;3.38;;;;;;;3.75;70.66;97833.63;5079540;28;20490;-79
2022/01/29 09:59:24;;;;;;;6.57;3.50;;;;;;;3.83;70.99;97826.19;5079746;28;20059;-80
2022/01/29 10:01:51;;;;;;;5.50;3.17;;;;;;;3.90;71.03;97830.78;5079553;28;20631;-79
2022/01/29 10:04:23;;;;;;;5.65;3.90;;;;;;;3.98;71.63;97821.66;5079650;28;20112;-78
2022/01/29 10:07:15;;;;;;;5.00;3.17;;;;;;;4.10;71.10;97816.44;5079339;28;20053;-79
2022/01/29 10:09:43;;;;;;;4.90;2.83;;;;;;;4.19;70.65;97820.09;5080764;28;20243;-79
2022/01/29 10:12:23;;;;;;;6.18;3.20;;;;;;;4.30;71.01;97812.38;5080326;28;20051;-77
2022/01/29 10:14:53;;;;;;;5.07;2.90;;;;;;;4.48;70.75;97818.00;5081233;28;20049;-78
2022/01/29 10:17:45;;;;;;;5.25;3.10;;;;;;;4.49;70.53;97827.38;5079265;28;20045;-80
2022/01/29 10:20:19;;;;;;;6.03;3.00;;;;;;;4.49;71.12;97822.19;5076312;28;20052;-74
2022/01/29 10:22:49;;;;;;;5.00;2.90;;;;;;;4.46;70.67;97819.88;5076567;28;20074;-78
2022/01/29 10:25:19;;;;;;;5.85;3.22;;;;;;;4.47;71.69;97813.75;5078765;28;20525;-78
2022/01/29 10:28:11;;;;;;;6.13;3.17;;;;;;;4.51;71.34;97794.50;5077607;28;20052;-78
2022/01/29 10:30:56;;;;;;;3.97;2.60;;;;;;;4.55;69.35;97805.44;5075935;28;20055;-78
2022/01/29 10:33:26;;;;;;;5.32;3.00;;;;;;;4.59;70.60;97811.19;5077247;28;20048;-78
2022/01/29 10:35:56;;;;;;;3.38;3.08;;;;;;;4.63;70.70;97797.09;5077870;28;20714;-77
2022/01/29 10:38:26;;;;;;;6.10;3.30;;;;;;;4.66;71.38;97792.53;5077600;28;20051;-77
2022/01/29 10:41:17;;;;;;;9.32;6.03;;;;;;;4.71;70.15;97805.09;5080434;28;20063;-82
2022/01/29 10:44:09;;;;;;;7.47;4.88;;;;;;;4.72;71.12;97791.22;5087041;28;20051;-80
2022/01/29 10:46:39;;;;;;;13.48;7.97;;;;;;;4.73;70.14;97798.88;5082193;28;20053;-78
2022/01/29 10:49:08;;;;;;;6.35;4.35;;;;;;;4.80;70.81;97795.84;5081232;28;20048;-79
2022/01/29 10:51:37;;;;;;;4.07;2.90;;;;;;;4.83;70.93;97790.41;5081252;28;20075;-77
2022/01/29 10:54:18;;;;;;;4.20;2.65;;;;;;;4.87;70.44;97799.59;5081020;28;20040;-79
2022/01/29 10:56:55;;;;;;;4.00;3.40;;;;;;;4.88;71.45;97786.56;5084723;28;20045;-82
2022/01/29 10:59:23;;;;;;;4.80;2.83;;;;;;;4.88;70.38;97794.31;5086524;28;20057;-80
2022/01/29 11:01:52;;;;;;;5.55;3.28;;;;;;;4.87;70.81;97784.91;5084790;28;20047;-79
2022/01/29 11:04:20;;;;;;;3.97;2.83;;;;;;;4.87;71.13;97789.25;5082681;28;20056;-78
2022/01/29 11:06:52;;;;;;;3.90;2.88;;;;;;;4.85;70.18;97784.19;5082488;28;20056;-78
2022/01/29 11:09:21;;;;;;;4.97;3.33;;;;;;;4.86;70.20;97783.25;5082909;28;20052;-78
2022/01/29 11:11:49;;;;;;;6.47;3.08;;;;;;;4.86;70.31;97775.50;5082588;28;20044;-79
2022/01/29 11:14:19;;;;;;;5.75;3.05;;;;;;;4.86;69.42;97778.09;5080378;28;20049;-79
2022/01/29 11:16:48;;;;;;;4.07;3.13;;;;;;;4.90;69.15;97784.69;5079735;28;20533;-79
2022/01/29 11:19:21;;;;;;;5.50;3.38;;;;;;;4.92;69.33;97787.16;5080177;28;20095;-80
2022/01/29 11:21:53;;;;;;;6.40;3.05;;;;;;;4.91;69.03;97778.56;5080404;28;20048;-77
2022/01/29 11:24:24;;;;;;;7.43;3.65;;;;;;;4.92;69.89;97767.28;5079537;28;20067;-79
2022/01/29 11:26:51;;;;;;;5.45;3.80;;;;;;;4.98;69.96;97770.34;5078706;28;20056;-77
2022/01/29 11:29:27;;;;;;;6.47;3.15;;;;;;;5.02;70.85;97772.56;5079794;28;20052;-77
2022/01/29 11:32:27;;;;;;;5.32;4.03;;;;;;;5.06;70.54;97778.34;5080037;28;20056;-78
2022/01/29 11:35:04;;;;;;;29.85;8.57;;;;;;;5.08;70.53;97771.28;5081465;28;20048;-79
2022/01/29 11:37:44;;;;;;;5.80;3.55;;;;;;;5.09;70.03;97770.31;5081325;28;20053;-76
2022/01/29 11:40:15;;;;;;;4.50;3.50;;;;;;;5.11;70.19;97771.03;5081154;28;20044;-77
2022/01/29 11:42:57;;;;;;;79.32;44.80;;;;;;;5.15;70.57;97767.28;5081018;28;20131;-78
2022/01/29 11:45:44;;;;;;;8.65;6.13;;;;;;;5.17;70.14;97778.31;5081167;28;20056;-78
2022/01/29 11:48:53;;;;;;;6.50;4.60;;;;;;;5.18;69.67;97769.59;5078762;28;20044;-78
2022/01/29 11:51:49;;;;;;;11.18;5.07;;;;;;;5.21;70.28;97761.63;5080947;28;20072;-78
2022/01/29 11:54:23;;;;;;;10.35;4.75;;;;;;;5.23;70.76;97774.44;5079785;28;20102;-75
2022/01/29 11:57:08;;;;;;;5.38;4.13;;;;;;;5.23;69.81;97770.09;5083875;28;20053;-79
2022/01/29 11:59:35;;;;;;;6.10;4.88;;;;;;;5.19;70.87;97758.34;5079816;28;20509;-77